Time;durP1;ratioP1;P1;durP2;ratioP2;P2;SDS_P1;SDS_P2;PMS_P1;PMS_P2;Temp;Humidity;BMP_temperature;BMP_pressure;BME280_temperature;BME280_humidity;BME280_pressure;Samples;Min_cycle;Max_cycle;Signal;HPM_P1;HPM_P2
2022/08/24 00:00:41;;;;;;;0.20;0.20;;;;;;;23.78;64.22;101740.97;1999859;29;20053;-73
2022/08/24 00:01:44;;;;;;;0.20;0.20;;;;;;;23.75;64.20;101736.28;1979992;29;20114;-74
2022/08/24 00:02:47;;;;;;;0.20;0.20;;;;;;;23.73;64.30;101738.66;1986720;29;20066;-73
2022/08/24 00:03:51;;;;;;;0.10;0.10;;;;;;;23.73;64.29;101744.16;2003154;29;20525;-72
2022/08/24 00:04:58;;;;;;;0.20;0.20;;;;;;;23.67;64.50;101745.00;2005071;29;20056;-72
2022/08/24 00:06:02;;;;;;;0.20;0.20;;;;;;;23.65;64.09;101739.91;2002898;29;20097;-73
2022/08/24 00:07:06;;;;;;;0.20;0.20;;;;;;;23.64;64.76;101746.63;2002420;29;20049;-72
2022/08/24 00:08:30;;;;;;;0.20;0.20;;;;;;;23.56;64.80;101745.88;1996001;29;20053;-74
2022/08/24 00:09:33;;;;;;;0.20;0.20;;;;;;;23.56;64.72;101745.09;1994442;29;20140;-73
2022/08/24 00:10:35;;;;;;;0.20;0.20;;;;;;;23.55;64.73;101749.03;1999970;29;20180;-72
2022/08/24 00:11:37;;;;;;;0.20;0.20;;;;;;;23.58;64.69;101748.22;1992330;29;20062;-73
2022/08/24 00:12:42;;;;;;;0.20;0.20;;;;;;;23.57;64.96;101747.47;1999516;29;20070;-73
2022/08/24 00:13:44;;;;;;;0.13;0.13;;;;;;;23.56;64.78;101748.63;2001398;29;20054;-72
2022/08/24 00:14:48;;;;;;;0.10;0.10;;;;;;;23.53;65.14;101749.44;1992951;29;20533;-72
2022/08/24 00:15:50;;;;;;;0.20;0.20;;;;;;;23.52;65.12;101755.38;1998413;29;20806;-73
2022/08/24 00:16:53;;;;;;;0.17;0.17;;;;;;;23.52;65.17;101744.34;1995784;29;20141;-72
2022/08/24 00:17:56;;;;;;;0.22;0.22;;;;;;;23.49;65.07;101747.91;1996556;29;20157;-73
2022/08/24 00:18:59;;;;;;;0.20;0.20;;;;;;;23.49;65.00;101742.41;2001930;29;20062;-72
2022/08/24 00:20:02;;;;;;;0.20;0.20;;;;;;;23.49;65.07;101742.41;2001017;29;20065;-72
2022/08/24 00:21:06;;;;;;;0.20;0.20;;;;;;;23.46;65.18;101751.47;2000546;29;20129;-73
2022/08/24 00:22:08;;;;;;;0.20;0.20;;;;;;;23.45;65.17;101747.16;2003781;29;20451;-73
2022/08/24 00:23:12;;;;;;;0.17;0.17;;;;;;;23.42;65.44;101751.50;1999938;29;20525;-73
2022/08/24 00:24:15;;;;;;;0.20;0.20;;;;;;;23.41;65.21;101749.16;1993209;29;20062;-73
2022/08/24 00:25:19;;;;;;;0.20;0.20;;;;;;;23.39;65.57;101748.78;1994963;29;20145;-72
2022/08/24 00:26:21;;;;;;;0.20;0.20;;;;;;;23.33;65.67;101742.91;1999361;29;20470;-73
2022/08/24 00:27:31;;;;;;;0.20;0.20;;;;;;;23.35;65.39;101748.03;2000356;29;20632;-73
2022/08/24 00:28:34;;;;;;;0.20;0.20;;;;;;;23.35;65.49;101748.81;2013865;29;20065;-73
2022/08/24 00:29:38;;;;;;;0.20;0.20;;;;;;;23.33;65.55;101753.16;2008388;29;20422;-73
2022/08/24 00:30:40;;;;;;;0.30;0.30;;;;;;;23.32;65.84;101757.91;2010804;29;20163;-72
2022/08/24 00:31:43;;;;;;;0.20;0.20;;;;;;;23.30;65.94;101740.19;2010524;29;20061;-73
2022/08/24 00:32:46;;;;;;;0.20;0.20;;;;;;;23.33;65.65;101753.16;1998245;29;20090;-72
2022/08/24 00:33:49;;;;;;;0.20;0.20;;;;;;;23.28;65.56;101756.34;1995715;29;20061;-73
2022/08/24 00:34:51;;;;;;;0.25;0.25;;;;;;;23.28;65.92;101757.13;2003329;29;20827;-75
2022/08/24 00:36:01;;;;;;;0.30;0.30;;;;;;;23.24;66.04;101758.31;2011851;29;20457;-73
2022/08/24 00:37:05;;;;;;;0.30;0.30;;;;;;;23.20;65.73;101749.28;1994669;29;20050;-72
2022/08/24 00:38:08;;;;;;;0.20;0.20;;;;;;;23.22;65.98;101757.94;1994759;29;20053;-72
2022/08/24 00:39:11;;;;;;;0.20;0.20;;;;;;;23.19;65.82;101765.03;1995871;29;20545;-73
2022/08/24 00:40:18;;;;;;;0.30;0.30;;;;;;;23.21;65.72;101761.88;1995476;29;20400;-75
2022/08/24 00:41:21;;;;;;;0.30;0.30;;;;;;;23.18;65.99;101759.94;2002421;29;20054;-73
2022/08/24 00:42:24;;;;;;;0.30;0.30;;;;;;;23.15;66.37;101758.00;1997134;29;20145;-73
2022/08/24 00:43:27;;;;;;;0.20;0.20;;;;;;;23.16;66.24;101754.81;1998968;29;20099;-74
2022/08/24 00:44:33;;;;;;;0.20;0.20;;;;;;;23.15;66.33;101753.25;2009235;29;20149;-73
2022/08/24 00:45:41;;;;;;;0.20;0.20;;;;;;;23.13;66.32;101760.34;1996639;29;20086;-73
2022/08/24 00:46:51;;;;;;;0.28;0.28;;;;;;;23.12;66.24;101750.53;1995445;29;20069;-72
2022/08/24 00:47:57;;;;;;;0.20;0.20;;;;;;;23.09;66.66;101752.09;1990724;29;20145;-73
2022/08/24 00:49:04;;;;;;;0.20;0.20;;;;;;;23.09;66.07;101754.88;1995411;29;20090;-72
2022/08/24 00:50:13;;;;;;;0.20;0.20;;;;;;;23.08;66.62;101756.06;2002736;29;20537;-72
2022/08/24 00:51:22;;;;;;;0.30;0.30;;;;;;;23.07;66.45;101756.47;2007805;29;20093;-74
2022/08/24 00:52:28;;;;;;;0.30;0.30;;;;;;;23.04;66.89;101752.53;1998175;29;20062;-73
2022/08/24 00:53:35;;;;;;;0.25;0.25;;;;;;;23.04;66.50;101749.78;1994209;29;20101;-73
2022/08/24 00:54:40;;;;;;;0.25;0.25;;;;;;;23.04;66.68;101757.28;2004893;29;20092;-73
2022/08/24 00:55:52;;;;;;;0.30;0.30;;;;;;;23.00;66.67;101757.28;1994201;29;20532;-72
2022/08/24 00:57:01;;;;;;;0.30;0.30;;;;;;;22.98;66.64;101754.16;1988647;29;20145;-73
2022/08/24 00:58:09;;;;;;;0.30;0.30;;;;;;;22.99;66.17;101754.94;2005505;29;20053;-73
2022/08/24 00:59:22;;;;;;;0.20;0.20;;;;;;;22.95;66.74;101763.22;2004191;29;20046;-72
2022/08/24 01:00:30;;;;;;;0.30;0.30;;;;;;;22.94;66.47;101763.63;2003118;29;20054;-72
2022/08/24 01:02:11;;;;;;;0.20;0.20;;;;;;;22.86;66.72;101757.38;2014892;29;20056;-72
2022/08/24 01:03:50;;;;;;;0.20;0.20;;;;;;;22.79;66.89;101762.91;1995559;29;20051;-73
2022/08/24 01:05:27;;;;;;;0.30;0.30;;;;;;;22.79;66.66;101757.41;1992682;29;20102;-73
2022/08/24 01:06:49;;;;;;;0.20;0.20;;;;;;;22.74;67.59;101757.81;2002334;29;20113;-73
2022/08/24 01:07:53;;;;;;;0.20;0.20;;;;;;;22.79;67.18;101762.09;2001913;29;20053;-72
2022/08/24 01:08:55;;;;;;;0.20;0.20;;;;;;;22.80;66.94;101763.69;2029149;24;20076;-65
2022/08/24 01:10:04;;;;;;;0.30;0.30;;;;;;;22.80;67.09;101763.69;2001226;29;20054;-64
2022/08/24 01:11:12;;;;;;;0.20;0.20;;;;;;;22.79;67.18;101762.09;2010319;29;20100;-64
2022/08/24 01:12:16;;;;;;;0.30;0.30;;;;;;;22.78;66.69;101760.56;2011143;29;20041;-64
2022/08/24 01:13:19;;;;;;;0.30;0.30;;;;;;;22.76;67.05;101760.16;2013290;29;20095;-65
2022/08/24 01:14:24;;;;;;;0.20;0.20;;;;;;;22.77;66.78;101765.25;2012321;29;20053;-64
2022/08/24 01:15:28;;;;;;;0.20;0.20;;;;;;;22.77;67.01;101764.50;2016737;29;20080;-66
2022/08/24 01:19:17;;;;;;;0.30;0.30;;;;;;;22.68;67.22;101762.16;2010706;29;20109;-64
2022/08/24 01:20:19;;;;;;;0.30;0.30;;;;;;;22.66;67.18;101766.53;2010122;29;20046;-64
2022/08/24 01:21:25;;;;;;;0.30;0.30;;;;;;;22.67;67.35;101757.06;2014422;29;20505;-65
2022/08/24 01:22:46;;;;;;;0.30;0.30;;;;;;;22.62;67.38;101765.72;2014340;29;20053;-65
2022/08/24 01:23:54;;;;;;;0.30;0.30;;;;;;;22.62;67.57;101754.72;2010432;29;20085;-64
2022/08/24 01:24:56;;;;;;;0.25;0.25;;;;;;;22.58;67.96;101756.72;2010045;29;20065;-65
2022/08/24 01:26:00;;;;;;;0.30;0.30;;;;;;;22.61;67.75;101751.19;2003724;29;20168;-66
2022/08/24 01:27:07;;;;;;;0.30;0.30;;;;;;;22.60;67.25;101759.84;2010469;29;20061;-64
2022/08/24 01:28:14;;;;;;;0.20;0.20;;;;;;;22.59;67.76;101750.03;2016614;29;20508;-64
2022/08/24 01:29:19;;;;;;;0.30;0.30;;;;;;;22.56;67.55;101753.56;2014604;29;20056;-65
2022/08/24 01:30:27;;;;;;;0.30;0.30;;;;;;;22.54;67.87;101761.44;2014413;29;20443;-65
2022/08/24 01:31:37;;;;;;;0.20;0.20;;;;;;;22.48;67.77;101749.25;2016447;29;20076;-64
2022/08/24 01:32:41;;;;;;;0.40;0.40;;;;;;;22.51;67.45;101751.19;2014600;29;20205;-64
2022/08/24 01:33:43;;;;;;;0.30;0.30;;;;;;;22.49;67.37;101743.34;2010474;29;20057;-65
2022/08/24 01:34:46;;;;;;;0.30;0.30;;;;;;;22.48;67.77;101757.50;2008036;29;20064;-64
2022/08/24 01:35:48;;;;;;;0.30;0.30;;;;;;;22.47;67.38;101753.19;2008411;29;20126;-65
2022/08/24 01:36:54;;;;;;;0.30;0.30;;;;;;;22.45;67.88;101753.59;2015056;29;20063;-65
2022/08/24 01:38:00;;;;;;;0.30;0.30;;;;;;;22.42;68.01;101759.88;2015761;29;20127;-68
2022/08/24 01:39:10;;;;;;;0.30;0.30;;;;;;;22.40;67.84;101755.97;2004632;29;20062;-64
2022/08/24 01:40:12;;;;;;;0.20;0.20;;;;;;;22.35;68.42;101759.91;2009677;29;20088;-64
2022/08/24 01:41:17;;;;;;;0.28;0.28;;;;;;;22.34;68.12;101752.06;2007816;29;20072;-65
2022/08/24 01:42:18;;;;;;;0.25;0.25;;;;;;;22.35;68.33;101753.63;1993648;29;20054;-65
2022/08/24 01:43:23;;;;;;;0.20;0.20;;;;;;;22.35;68.29;101753.63;1993946;29;20092;-66
2022/08/24 01:44:27;;;;;;;0.30;0.30;;;;;;;22.29;68.56;101755.22;2001301;29;20076;-65
2022/08/24 01:45:31;;;;;;;0.30;0.30;;;;;;;22.28;68.21;101754.41;2009827;29;20069;-65
2022/08/24 01:46:33;;;;;;;0.20;0.20;;;;;;;22.23;68.43;101758.38;2016847;29;20083;-64
2022/08/24 01:47:36;;;;;;;0.20;0.20;;;;;;;22.21;68.71;101760.72;2009060;29;20573;-64
2022/08/24 01:48:38;;;;;;;0.30;0.30;;;;;;;22.18;68.51;101758.75;2001430;29;20094;-64
2022/08/24 01:49:44;;;;;;;0.38;0.38;;;;;;;22.20;68.52;101759.16;2002182;29;20415;-64
2022/08/24 01:50:47;;;;;;;0.30;0.30;;;;;;;22.20;69.12;101758.38;2002180;29;20110;-65
2022/08/24 01:51:49;;;;;;;0.30;0.30;;;;;;;22.17;68.82;101773.72;2007313;29;20552;-64
2022/08/24 01:52:51;;;;;;;0.30;0.30;;;;;;;22.21;68.88;101766.22;2012767;29;20541;-64
2022/08/24 01:54:09;;;;;;;0.30;0.30;;;;;;;22.18;69.24;101766.25;2008539;29;20117;-65
2022/08/24 01:55:13;;;;;;;0.30;0.30;;;;;;;22.19;69.20;101771.34;2003647;29;20049;-66
2022/08/24 01:56:20;;;;;;;0.30;0.30;;;;;;;22.14;69.32;101768.22;2014558;29;20049;-65
2022/08/24 01:57:24;;;;;;;0.30;0.30;;;;;;;22.13;68.95;101769.41;2016185;29;20789;-65
2022/08/24 01:58:26;;;;;;;0.30;0.30;;;;;;;22.13;68.79;101770.19;2005113;29;20524;-65
2022/08/24 01:59:28;;;;;;;0.20;0.20;;;;;;;22.12;68.90;101779.63;2005276;29;20049;-66
2022/08/24 02:00:32;;;;;;;0.30;0.30;;;;;;;22.13;68.51;101774.91;2008920;29;20061;-65
2022/08/24 02:01:39;;;;;;;0.30;0.30;;;;;;;22.11;68.74;101778.06;2006909;29;20089;-65
2022/08/24 02:02:43;;;;;;;0.30;0.30;;;;;;;22.08;68.96;101778.06;2008883;29;20053;-65
2022/08/24 02:03:46;;;;;;;0.30;0.30;;;;;;;22.04;69.28;101771.78;2001652;29;20062;-66
2022/08/24 02:04:53;;;;;;;0.30;0.30;;;;;;;22.01;69.21;101773.34;2001498;29;20062;-65
2022/08/24 02:05:57;;;;;;;0.30;0.30;;;;;;;22.03;69.06;101773.75;2001553;29;20060;-71
2022/08/24 02:07:00;;;;;;;0.30;0.30;;;;;;;22.00;69.70;101780.03;1995821;29;20534;-70
2022/08/24 02:08:06;;;;;;;0.30;0.30;;;;;;;22.02;69.11;101769.41;1994244;29;20095;-71
2022/08/24 02:09:09;;;;;;;0.30;0.30;;;;;;;22.01;69.06;101770.59;1999562;29;20058;-71
2022/08/24 02:10:14;;;;;;;0.30;0.30;;;;;;;21.98;69.87;101765.88;1998494;29;20498;-71
2022/08/24 02:11:16;;;;;;;0.30;0.30;;;;;;;21.99;69.21;101770.19;1994790;29;20062;-70
2022/08/24 02:12:21;;;;;;;0.30;0.30;;;;;;;21.99;69.55;101770.19;2002782;29;20049;-70
2022/08/24 02:13:23;;;;;;;0.30;0.30;;;;;;;21.98;69.60;101763.13;1999981;29;20050;-71
2022/08/24 02:14:27;;;;;;;0.40;0.40;;;;;;;21.99;69.10;101769.44;2000919;29;20578;-71
2022/08/24 02:15:36;;;;;;;0.30;0.30;;;;;;;22.01;69.45;101769.81;2006631;29;20049;-70
2022/08/24 02:16:39;;;;;;;0.30;0.30;;;;;;;21.97;69.46;101769.03;1996658;29;20762;-71
2022/08/24 02:17:41;;;;;;;0.20;0.20;;;;;;;21.97;69.20;101769.84;1985952;29;20086;-71
2022/08/24 02:18:45;;;;;;;0.30;0.30;;;;;;;21.96;69.56;101765.50;2001379;29;20062;-71
2022/08/24 02:19:47;;;;;;;0.40;0.40;;;;;;;21.98;68.94;101765.88;2001234;29;20054;-71
2022/08/24 02:20:50;;;;;;;0.32;0.32;;;;;;;21.94;69.46;101762.38;1989502;29;20860;-71
2022/08/24 02:21:52;;;;;;;0.30;0.30;;;;;;;21.95;69.62;101763.94;1989969;29;20434;-71
2022/08/24 02:22:56;;;;;;;0.30;0.30;;;;;;;21.93;70.01;101769.03;1995013;29;20864;-71
2022/08/24 02:23:59;;;;;;;0.30;0.30;;;;;;;21.89;70.01;101768.25;1998807;29;20046;-71
2022/08/24 02:25:04;;;;;;;0.25;0.25;;;;;;;21.90;69.77;101766.28;1994147;29;20414;-70
2022/08/24 02:26:10;;;;;;;0.30;0.30;;;;;;;21.86;69.74;101768.25;2001807;29;20053;-71
2022/08/24 02:27:15;;;;;;;0.20;0.20;;;;;;;21.87;69.60;101764.31;2009093;29;20172;-70
2022/08/24 02:28:19;;;;;;;0.20;0.20;;;;;;;21.84;70.16;101762.38;2008321;29;20061;-70
2022/08/24 02:29:22;;;;;;;0.30;0.30;;;;;;;21.86;69.75;101766.31;2001802;29;20522;-70
2022/08/24 02:30:25;;;;;;;0.30;0.30;;;;;;;21.86;70.04;101760.03;2004346;29;20093;-70
2022/08/24 02:31:28;;;;;;;0.20;0.20;;;;;;;21.87;69.43;101767.88;2001845;29;20096;-71
2022/08/24 02:32:30;;;;;;;0.20;0.20;;;;;;;21.86;70.12;101762.78;1994268;29;20123;-70
2022/08/24 02:33:33;;;;;;;0.28;0.28;;;;;;;21.86;70.05;101765.50;1989716;29;20668;-71
2022/08/24 02:34:35;;;;;;;0.30;0.30;;;;;;;21.84;69.68;101760.41;1997142;29;20093;-71
2022/08/24 02:35:39;;;;;;;0.20;0.20;;;;;;;21.83;69.63;101767.09;2008210;29;20118;-71
2022/08/24 02:36:41;;;;;;;0.30;0.30;;;;;;;21.83;69.41;101769.06;2001075;29;20073;-70
2022/08/24 02:37:45;;;;;;;0.20;0.20;;;;;;;21.83;69.70;101764.34;1991808;29;20058;-71
2022/08/24 02:38:49;;;;;;;0.20;0.20;;;;;;;21.81;69.76;101769.44;1987687;29;20054;-71
2022/08/24 02:39:56;;;;;;;0.28;0.28;;;;;;;21.76;70.31;101760.81;2000944;29;20046;-71
2022/08/24 02:41:00;;;;;;;0.30;0.30;;;;;;;21.79;70.39;101768.25;1999670;29;20058;-71
2022/08/24 02:42:05;;;;;;;0.30;0.30;;;;;;;21.73;70.21;101773.34;1988894;29;20046;-71
2022/08/24 02:43:07;;;;;;;0.30;0.30;;;;;;;21.72;70.47;101766.25;1997822;29;20050;-71
2022/08/24 02:44:10;;;;;;;0.30;0.30;;;;;;;21.73;70.81;101769.81;2009091;29;20113;-71
2022/08/24 02:45:13;;;;;;;0.30;0.30;;;;;;;21.71;70.52;101775.69;2002763;29;20156;-71
2022/08/24 02:46:19;;;;;;;0.30;0.30;;;;;;;21.72;70.50;101766.25;1992706;29;20483;-71
2022/08/24 02:47:22;;;;;;;0.28;0.28;;;;;;;21.73;70.57;101767.06;1986712;29;20446;-71
2022/08/24 02:48:41;;;;;;;0.20;0.20;;;;;;;21.67;70.40;101769.44;1993609;29;20160;-71
2022/08/24 02:49:43;;;;;;;0.30;0.30;;;;;;;21.69;70.28;101767.06;1990721;29;20047;-71
2022/08/24 02:50:50;;;;;;;0.30;0.30;;;;;;;21.72;70.29;101771.00;1987251;29;20495;-71
2022/08/24 02:51:52;;;;;;;0.20;0.20;;;;;;;21.70;70.32;101768.63;1989319;29;20542;-71
2022/08/24 02:52:57;;;;;;;0.30;0.30;;;;;;;21.70;70.65;101768.63;1987975;29;20062;-71
2022/08/24 02:54:00;;;;;;;0.20;0.20;;;;;;;21.71;70.93;101770.19;1993646;29;20046;-70
2022/08/24 02:55:06;;;;;;;0.20;0.20;;;;;;;21.69;70.66;101772.56;1999233;29;20586;-70
2022/08/24 02:56:11;;;;;;;0.20;0.20;;;;;;;21.67;70.65;101772.19;1998873;29;20054;-69
2022/08/24 02:57:21;;;;;;;0.30;0.30;;;;;;;21.63;70.90;101768.63;2009043;29;20054;-70
2022/08/24 02:58:25;;;;;;;0.30;0.30;;;;;;;21.59;71.19;101767.84;1997617;29;20057;-70
2022/08/24 02:59:32;;;;;;;0.30;0.30;;;;;;;21.52;71.29;101765.09;1998626;29;20042;-70
2022/08/24 03:00:37;;;;;;;0.30;0.30;;;;;;;21.45;72.31;101772.56;1999566;29;20475;-70
2022/08/24 03:01:43;;;;;;;0.30;0.30;;;;;;;21.40;72.44;101770.19;2006877;29;20092;-69
2022/08/24 03:02:48;;;;;;;0.30;0.30;;;;;;;21.34;72.45;101772.56;2000975;29;20437;-70
2022/08/24 03:03:56;;;;;;;0.30;0.30;;;;;;;21.26;72.59;101765.47;1993337;29;20062;-71
2022/08/24 03:05:00;;;;;;;0.25;0.25;;;;;;;21.23;72.93;101766.22;2000253;29;20058;-71
2022/08/24 03:06:05;;;;;;;0.20;0.20;;;;;;;21.25;72.46;101772.13;2000657;29;20054;-70
2022/08/24 03:07:08;;;;;;;0.28;0.28;;;;;;;21.21;72.72;101767.81;1993684;29;20054;-71
2022/08/24 03:08:12;;;;;;;0.20;0.20;;;;;;;21.21;72.63;101774.09;1986335;29;20515;-69
2022/08/24 03:09:15;;;;;;;0.30;0.30;;;;;;;21.23;72.83;101777.22;1971362;29;20063;-69
2022/08/24 03:10:20;;;;;;;0.30;0.30;;;;;;;21.23;72.60;101777.22;1986323;29;20046;-70
2022/08/24 03:11:24;;;;;;;0.20;0.20;;;;;;;21.26;72.48;101784.72;1993163;29;20057;-72
2022/08/24 03:12:30;;;;;;;0.30;0.30;;;;;;;21.25;72.84;101785.88;1984485;29;20051;-70
2022/08/24 03:13:33;;;;;;;0.20;0.20;;;;;;;21.27;72.63;101774.50;1986438;29;20092;-70
2022/08/24 03:14:37;;;;;;;0.30;0.30;;;;;;;21.29;72.44;101786.69;1986697;29;20059;-71
2022/08/24 03:15:40;;;;;;;0.20;0.20;;;;;;;21.30;72.19;101785.50;1989536;29;20133;-70
2022/08/24 03:16:44;;;;;;;0.22;0.22;;;;;;;21.30;72.55;101790.97;2001506;29;20541;-70
2022/08/24 03:17:48;;;;;;;0.30;0.30;;;;;;;21.31;72.44;101784.31;1992515;29;20531;-70
2022/08/24 03:18:51;;;;;;;0.30;0.30;;;;;;;21.31;72.20;101778.81;1978984;29;20826;-71
2022/08/24 03:19:54;;;;;;;0.20;0.20;;;;;;;21.31;72.10;101787.06;1978514;29;20056;-70
2022/08/24 03:21:01;;;;;;;0.20;0.20;;;;;;;21.32;72.22;101796.88;1984039;29;20054;-70
2022/08/24 03:22:07;;;;;;;0.20;0.20;;;;;;;21.29;72.12;101785.88;1986162;29;20514;-70
2022/08/24 03:23:11;;;;;;;0.20;0.20;;;;;;;21.31;71.95;101789.03;1979010;29;20477;-70
2022/08/24 03:24:13;;;;;;;0.30;0.30;;;;;;;21.32;71.66;101794.13;1986193;29;20055;-70
2022/08/24 03:25:18;;;;;;;0.25;0.25;;;;;;;21.34;71.34;101793.75;2000503;29;20160;-70
2022/08/24 03:26:21;;;;;;;0.20;0.20;;;;;;;21.30;71.62;101793.72;1999818;29;20054;-70
2022/08/24 03:27:26;;;;;;;0.30;0.30;;;;;;;21.32;71.72;101794.13;1993434;29;20054;-69
2022/08/24 03:28:29;;;;;;;0.30;0.30;;;;;;;21.30;71.28;101788.22;1994241;29;20816;-70
2022/08/24 03:29:35;;;;;;;0.30;0.30;;;;;;;21.32;71.19;101788.63;1997443;29;20492;-70
2022/08/24 03:30:38;;;;;;;0.30;0.30;;;;;;;21.31;71.43;101791.78;1989161;29;20062;-71
2022/08/24 03:31:44;;;;;;;0.30;0.30;;;;;;;21.29;71.49;101786.69;1986026;29;20055;-71
2022/08/24 03:32:47;;;;;;;0.30;0.30;;;;;;;21.30;70.84;101788.22;1982728;29;20047;-71
2022/08/24 03:33:51;;;;;;;0.30;0.30;;;;;;;21.30;71.18;101792.94;1979352;29;20067;-71
2022/08/24 03:34:54;;;;;;;0.20;0.20;;;;;;;21.31;71.45;101789.78;1988090;29;20129;-71
2022/08/24 03:35:57;;;;;;;0.30;0.30;;;;;;;21.28;71.36;101790.56;1997442;29;20054;-71
2022/08/24 03:37:01;;;;;;;0.22;0.22;;;;;;;21.29;71.09;101794.91;1993217;29;20599;-70
2022/08/24 03:38:03;;;;;;;0.30;0.30;;;;;;;21.29;71.12;101791.38;1978852;29;20051;-70
2022/08/24 03:39:06;;;;;;;0.30;0.30;;;;;;;21.30;71.54;101796.47;1982304;29;20061;-71
2022/08/24 03:40:11;;;;;;;0.30;0.30;;;;;;;21.30;71.03;101799.22;1988535;29;20443;-71
2022/08/24 03:41:31;;;;;;;0.30;0.30;;;;;;;21.26;71.18;101792.94;1986692;29;20601;-71
2022/08/24 03:42:43;;;;;;;0.20;0.20;;;;;;;21.27;71.50;101789.00;1988320;29;20097;-69
2022/08/24 03:43:48;;;;;;;0.20;0.20;;;;;;;21.26;71.59;101801.19;1988906;29;20089;-70
2022/08/24 03:44:54;;;;;;;0.25;0.25;;;;;;;21.28;71.54;101801.56;1993375;29;20483;-70
2022/08/24 03:46:01;;;;;;;0.30;0.30;;;;;;;21.26;71.91;101797.66;1992913;29;20054;-70
2022/08/24 03:47:07;;;;;;;0.30;0.30;;;;;;;21.27;71.56;101796.47;1983395;29;20062;-71
2022/08/24 03:48:12;;;;;;;0.30;0.30;;;;;;;21.24;71.33;101787.06;1992427;29;20400;-70
2022/08/24 03:49:17;;;;;;;0.30;0.30;;;;;;;21.25;71.39;101796.09;1994405;29;20085;-70
2022/08/24 03:50:22;;;;;;;0.30;0.30;;;;;;;21.26;71.30;101798.44;1995290;29;20051;-70
2022/08/24 03:51:27;;;;;;;0.30;0.30;;;;;;;21.26;71.71;101798.44;1999358;29;20050;-71
2022/08/24 03:52:31;;;;;;;0.40;0.40;;;;;;;21.23;71.97;101792.94;1993883;29;20419;-70
2022/08/24 03:53:35;;;;;;;0.30;0.30;;;;;;;21.25;71.71;101793.34;1995529;29;20605;-70
2022/08/24 03:54:45;;;;;;;0.25;0.25;;;;;;;21.24;71.83;101798.03;1991106;29;20081;-70
2022/08/24 03:55:48;;;;;;;0.30;0.30;;;;;;;21.21;71.50;101796.06;1993426;29;20141;-70
2022/08/24 03:56:53;;;;;;;0.30;0.30;;;;;;;21.22;71.96;101794.88;1989003;29;20053;-70
2022/08/24 03:57:59;;;;;;;0.20;0.20;;;;;;;21.25;71.70;101804.31;1993931;29;20530;-72
2022/08/24 03:59:03;;;;;;;0.30;0.30;;;;;;;21.22;71.67;101797.63;2000862;29;20105;-70
2022/08/24 04:00:17;;;;;;;0.38;0.38;;;;;;;21.22;71.45;101797.63;1992064;29;20133;-70
2022/08/24 04:01:32;;;;;;;0.30;0.30;;;;;;;21.18;71.77;101796.06;1985582;29;20648;-70
2022/08/24 04:02:37;;;;;;;0.30;0.30;;;;;;;21.18;71.72;101794.09;1989966;29;20046;-71
2022/08/24 04:03:44;;;;;;;0.20;0.20;;;;;;;21.19;71.78;101792.91;1979987;29;20147;-70
2022/08/24 04:04:50;;;;;;;0.40;0.40;;;;;;;21.18;71.91;101796.84;1992745;29;20110;-70
2022/08/24 04:05:54;;;;;;;0.30;0.30;;;;;;;21.22;71.59;101803.13;1986645;29;20548;-71
2022/08/24 04:07:03;;;;;;;0.30;0.30;;;;;;;21.22;71.74;101797.63;1999843;29;20422;-71
2022/08/24 04:08:07;;;;;;;0.30;0.30;;;;;;;21.20;71.93;101801.97;1993054;29;20085;-71
2022/08/24 04:09:12;;;;;;;0.30;0.30;;;;;;;21.22;71.69;101803.13;1981066;29;20086;-69
2022/08/24 04:10:18;;;;;;;0.30;0.30;;;;;;;21.24;71.86;101810.97;1980795;29;20419;-70
2022/08/24 04:11:25;;;;;;;0.40;0.40;;;;;;;21.27;71.20;101808.25;1989254;29;20050;-69
2022/08/24 04:12:29;;;;;;;0.40;0.40;;;;;;;21.24;72.34;101810.97;1997005;29;20057;-71
2022/08/24 04:13:35;;;;;;;0.40;0.40;;;;;;;21.25;71.77;101802.34;2000654;29;20088;-70
2022/08/24 04:14:38;;;;;;;0.30;0.30;;;;;;;21.29;71.37;101810.59;1993229;29;20100;-71
2022/08/24 04:15:51;;;;;;;0.40;0.40;;;;;;;21.24;71.83;101809.03;1991052;29;20535;-70
2022/08/24 04:16:55;;;;;;;0.30;0.30;;;;;;;21.28;71.97;101812.56;1987489;29;20423;-70
2022/08/24 04:18:10;;;;;;;0.40;0.40;;;;;;;21.26;71.82;101814.13;1988437;29;20135;-70
2022/08/24 04:19:14;;;;;;;0.40;0.40;;;;;;;21.29;71.55;101813.34;2000670;29;20587;-70
2022/08/24 04:20:19;;;;;;;0.50;0.50;;;;;;;21.26;71.74;101809.44;2001298;29;20107;-71
2022/08/24 04:21:28;;;;;;;0.50;0.50;;;;;;;21.30;71.37;101814.91;2002959;29;20050;-70
2022/08/24 04:22:36;;;;;;;0.40;0.40;;;;;;;21.27;72.04;101810.19;1999329;29;20925;-71
2022/08/24 04:23:41;;;;;;;0.40;0.40;;;;;;;21.24;72.01;101816.47;1995921;29;20115;-71
2022/08/24 04:24:49;;;;;;;0.40;0.40;;;;;;;21.22;71.77;101814.13;2008127;29;20061;-70
2022/08/24 04:25:52;;;;;;;0.50;0.50;;;;;;;21.21;71.79;101820.00;2000348;29;20530;-71
2022/08/24 04:26:56;;;;;;;0.43;0.43;;;;;;;21.19;71.81;101808.59;1992875;29;20054;-71
2022/08/24 04:28:00;;;;;;;0.40;0.40;;;;;;;21.22;71.70;101818.81;1992062;29;20137;-71
2022/08/24 04:29:10;;;;;;;0.45;0.45;;;;;;;21.22;71.56;101821.56;1997606;29;20108;-71
2022/08/24 04:30:21;;;;;;;0.45;0.45;;;;;;;21.15;72.48;101816.06;2002697;29;20129;-71
2022/08/24 04:31:44;;;;;;;0.40;0.40;;;;;;;21.16;72.12;101814.88;1999371;29;20053;-70
2022/08/24 04:32:47;;;;;;;0.40;0.40;;;;;;;21.15;72.38;101808.63;1993416;29;20492;-70
2022/08/24 04:33:53;;;;;;;0.40;0.40;;;;;;;21.17;72.26;101814.50;1993527;29;20103;-70
2022/08/24 04:34:57;;;;;;;0.40;0.40;;;;;;;21.15;72.15;101819.59;1993495;29;20061;-70
2022/08/24 04:36:07;;;;;;;0.40;0.40;;;;;;;21.13;72.52;101815.66;1989580;29;20459;-71
2022/08/24 04:37:11;;;;;;;0.40;0.40;;;;;;;21.11;72.05;101812.50;1992696;29;20107;-70
2022/08/24 04:38:16;;;;;;;0.50;0.50;;;;;;;21.11;72.13;101805.06;1987338;29;20066;-70
2022/08/24 04:39:32;;;;;;;0.40;0.40;;;;;;;21.02;72.75;101812.09;1994375;29;20054;-70
2022/08/24 04:40:39;;;;;;;0.40;0.40;;;;;;;21.02;72.78;101814.84;1996724;29;20078;-70
2022/08/24 04:41:43;;;;;;;0.50;0.50;;;;;;;20.98;72.78;101814.81;2000714;29;20053;-71
2022/08/24 04:42:51;;;;;;;0.50;0.50;;;;;;;20.95;73.07;101815.56;1994299;29;20057;-71
2022/08/24 04:43:54;;;;;;;0.40;0.40;;;;;;;20.93;72.85;101817.91;2001073;29;20065;-71
2022/08/24 04:44:59;;;;;;;0.40;0.40;;;;;;;20.91;73.21;101814.78;2002186;29;20085;-71
2022/08/24 04:46:06;;;;;;;0.50;0.50;;;;;;;20.84;73.26;101820.25;2002361;29;20123;-71
2022/08/24 04:47:13;;;;;;;0.50;0.50;;;;;;;20.75;73.77;101815.13;2005985;29;20133;-71
2022/08/24 04:48:17;;;;;;;0.50;0.50;;;;;;;20.71;73.80;101819.00;1999549;29;20054;-71
2022/08/24 04:49:20;;;;;;;0.47;0.47;;;;;;;20.68;73.80;101811.53;1993071;29;20054;-71
2022/08/24 04:50:25;;;;;;;0.40;0.40;;;;;;;20.64;74.25;101819.75;1996754;29;20058;-70
2022/08/24 04:51:29;;;;;;;0.50;0.50;;;;;;;20.60;74.05;101818.94;2008250;29;20836;-70
2022/08/24 04:52:39;;;;;;;0.50;0.50;;;;;;;20.52;74.63;101814.59;2000110;29;20077;-71
2022/08/24 04:53:47;;;;;;;0.50;0.50;;;;;;;20.41;75.17;101812.97;1993971;29;20050;-69
2022/08/24 04:54:50;;;;;;;0.40;0.40;;;;;;;20.35;75.29;101817.25;1993323;29;20162;-72
2022/08/24 04:55:56;;;;;;;0.40;0.40;;;;;;;20.34;75.35;101818.41;1991757;29;20099;-72
2022/08/24 04:57:00;;;;;;;0.50;0.50;;;;;;;20.33;75.34;101811.34;1992733;29;20099;-71
2022/08/24 04:58:03;;;;;;;0.50;0.50;;;;;;;20.29;75.78;101821.53;1991555;29;20067;-72
2022/08/24 04:59:07;;;;;;;0.50;0.50;;;;;;;20.29;75.72;101819.56;1995273;29;20069;-71
2022/08/24 05:00:13;;;;;;;0.50;0.50;;;;;;;20.29;75.64;101821.53;2000180;29;20058;-70
2022/08/24 05:01:22;;;;;;;0.50;0.50;;;;;;;20.27;75.67;101824.66;1990237;29;20047;-71
2022/08/24 05:02:25;;;;;;;0.47;0.47;;;;;;;20.23;76.02;101817.56;1986255;29;20114;-71
2022/08/24 05:03:32;;;;;;;0.50;0.50;;;;;;;20.22;75.74;101816.78;1994652;29;20141;-70
2022/08/24 05:04:36;;;;;;;0.43;0.43;;;;;;;20.24;75.59;101819.13;1999037;29;20529;-71
2022/08/24 05:05:44;;;;;;;0.50;0.50;;;;;;;20.23;75.84;101817.56;1987075;29;20058;-71
2022/08/24 05:06:49;;;;;;;0.50;0.50;;;;;;;20.19;76.27;101812.06;2000169;29;20050;-71
2022/08/24 05:07:56;;;;;;;0.40;0.40;;;;;;;20.18;76.42;101821.47;1999918;29;20085;-71